createdAt,value
2023-09-27T00:00:52.503Z,5.40
2023-09-27T00:03:54.568Z,5.30
2023-09-27T00:06:56.488Z,5.70
2023-09-27T00:09:58.608Z,6.50
2023-09-27T00:13:00.233Z,5.57
2023-09-27T00:16:01.849Z,5.60
2023-09-27T00:19:06.082Z,5.72
2023-09-27T00:22:09.032Z,5.03
2023-09-27T00:25:11.005Z,5.28
2023-09-27T00:28:12.879Z,5.80
2023-09-27T00:31:15.565Z,6.18
2023-09-27T00:34:17.178Z,5.95
2023-09-27T00:37:18.774Z,6.18
2023-09-27T00:40:23.412Z,6.55
2023-09-27T00:43:26.802Z,6.70
2023-09-27T00:46:28.552Z,6.85
2023-09-27T00:49:30.275Z,6.22
2023-09-27T00:52:32.604Z,6.07
2023-09-27T00:55:34.911Z,6.53
2023-09-27T00:58:38.281Z,6.13
2023-09-27T01:01:40.549Z,6.18
2023-09-27T01:04:42.489Z,7.35
2023-09-27T01:07:44.110Z,6.47
2023-09-27T01:10:46.845Z,6.28
2023-09-27T01:13:48.451Z,6.43
2023-09-27T01:16:50.135Z,6.78
2023-09-27T01:19:51.861Z,6.95
2023-09-27T01:22:59.787Z,5.63
2023-09-27T01:26:02.991Z,5.88
2023-09-27T01:29:05.515Z,6.88
2023-09-27T01:32:07.514Z,7.22
2023-09-27T01:35:09.745Z,6.70
2023-09-27T01:38:12.978Z,7.18
2023-09-27T01:41:14.746Z,6.88
2023-09-27T01:44:16.464Z,6.90
2023-09-27T01:47:18.418Z,6.95
2023-09-27T01:50:20.950Z,6.47
2023-09-27T01:53:22.609Z,6.18
2023-09-27T01:56:24.214Z,6.43
2023-09-27T01:59:25.823Z,6.45
2023-09-27T02:02:29.568Z,5.95
2023-09-27T02:05:32.420Z,6.85
2023-09-27T02:08:34.126Z,6.05
2023-09-27T02:11:35.852Z,6.30
2023-09-27T02:14:37.482Z,6.13
2023-09-27T02:17:40.663Z,6.07
2023-09-27T02:20:42.448Z,5.90
2023-09-27T02:23:44.059Z,6.30
2023-09-27T02:26:45.700Z,6.50
2023-09-27T02:29:47.322Z,6.80
2023-09-27T02:32:49.095Z,6.68
2023-09-27T02:35:50.740Z,6.57
2023-09-27T02:38:53.027Z,7.05
2023-09-27T02:41:54.919Z,6.15
2023-09-27T02:44:56.675Z,6.13
2023-09-27T02:47:59.840Z,6.40
2023-09-27T02:51:01.534Z,6.88
2023-09-27T02:54:03.247Z,6.20
2023-09-27T02:57:04.872Z,5.88
2023-09-27T03:00:08.158Z,5.72
2023-09-27T03:03:10.980Z,6.32
2023-09-27T03:06:16.012Z,7.05
2023-09-27T03:09:17.868Z,6.50
2023-09-27T03:12:19.472Z,6.63
2023-09-27T03:15:21.242Z,6.70
2023-09-27T03:18:23.180Z,6.57
2023-09-27T03:21:25.138Z,6.80
2023-09-27T03:24:27.935Z,7.03
2023-09-27T03:27:29.791Z,6.55
2023-09-27T03:30:31.428Z,7.10
2023-09-27T03:33:33.062Z,7.13
2023-09-27T03:36:35.436Z,7.60
2023-09-27T03:39:37.320Z,7.80
2023-09-27T03:42:38.932Z,7.93
2023-09-27T03:45:40.606Z,7.95
2023-09-27T03:48:42.240Z,7.88
2023-09-27T03:51:45.062Z,7.85
2023-09-27T03:54:46.642Z,7.38
2023-09-27T03:57:48.257Z,8.10
2023-09-27T04:00:50.034Z,7.47
2023-09-27T04:03:51.760Z,7.32
2023-09-27T04:06:53.467Z,7.30
2023-09-27T04:09:55.045Z,7.80
2023-09-27T04:12:56.784Z,7.85
2023-09-27T04:15:59.360Z,8.25
2023-09-27T04:19:00.984Z,8.10
2023-09-27T04:22:02.711Z,7.53
2023-09-27T04:25:04.608Z,7.72
2023-09-27T04:28:06.447Z,7.70
2023-09-27T04:31:08.220Z,8.20
2023-09-27T04:34:10.416Z,8.38
2023-09-27T04:37:12.143Z,7.45
2023-09-27T04:40:14.816Z,7.38
2023-09-27T04:43:16.819Z,8.25
2023-09-27T04:46:19.331Z,9.18
2023-09-27T04:49:21.940Z,9.73
2023-09-27T04:52:26.309Z,9.55
2023-09-27T04:55:28.922Z,9.73
2023-09-27T04:58:30.677Z,9.00
2023-09-27T05:01:32.805Z,8.98
2023-09-27T05:04:34.432Z,8.32
2023-09-27T05:07:36.046Z,7.88
2023-09-27T05:10:37.646Z,8.15
2023-09-27T05:13:39.297Z,8.63
2023-09-27T05:16:41.951Z,8.73
2023-09-27T05:19:43.578Z,8.75
2023-09-27T05:22:45.251Z,9.38
2023-09-27T05:25:49.686Z,9.55
2023-09-27T05:28:51.523Z,8.85
2023-09-27T05:31:53.256Z,10.63
2023-09-27T05:34:54.918Z,8.88
2023-09-27T05:37:59.925Z,11.35
2023-09-27T05:41:01.656Z,11.15
2023-09-27T05:44:08.161Z,11.27
2023-09-27T05:47:10.911Z,9.68
2023-09-27T05:50:14.464Z,9.25
2023-09-27T05:53:19.956Z,9.50
2023-09-27T05:56:21.640Z,11.13
2023-09-27T05:59:25.666Z,11.38
2023-09-27T06:02:34.156Z,9.80
2023-09-27T06:05:35.896Z,11.50
2023-09-27T06:08:37.533Z,10.98
2023-09-27T06:11:39.616Z,9.73
2023-09-27T06:14:43.737Z,10.77
2023-09-27T06:17:45.571Z,10.45
2023-09-27T06:20:48.437Z,10.57
2023-09-27T06:23:50.125Z,9.93
2023-09-27T06:26:51.756Z,10.82
2023-09-27T06:29:53.445Z,9.98
2023-09-27T06:32:55.159Z,9.40
2023-09-27T06:36:00.627Z,10.57
2023-09-27T06:39:02.645Z,9.75
2023-09-27T06:42:07.629Z,10.32
2023-09-27T06:45:11.329Z,9.70
2023-09-27T06:48:13.025Z,8.98
2023-09-27T06:51:14.881Z,7.95
2023-09-27T06:54:16.891Z,7.38
2023-09-27T06:57:18.953Z,7.80
2023-09-27T07:00:25.168Z,7.35
2023-09-27T07:03:29.318Z,6.80
2023-09-27T07:06:31.138Z,7.60
2023-09-27T07:09:34.311Z,6.30
2023-09-27T07:12:37.104Z,6.97
2023-09-27T07:15:38.954Z,6.15
2023-09-27T07:18:40.740Z,6.15
2023-09-27T07:21:42.488Z,6.22
2023-09-27T07:24:44.283Z,5.85
2023-09-27T07:27:47.455Z,7.25
2023-09-27T07:30:49.037Z,6.03
2023-09-27T07:33:56.115Z,6.45
2023-09-27T07:36:58.165Z,5.95
2023-09-27T07:39:59.870Z,6.15
2023-09-27T07:43:01.473Z,5.90
2023-09-27T07:46:06.424Z,5.85
2023-09-27T07:49:09.256Z,5.72
2023-09-27T07:52:10.827Z,6.28
2023-09-27T07:55:15.161Z,6.00
2023-09-27T07:58:17.525Z,5.95
2023-09-27T08:01:21.878Z,5.65
2023-09-27T08:04:23.776Z,5.40
2023-09-27T08:07:25.485Z,5.55
2023-09-27T08:10:27.220Z,4.72
2023-09-27T08:13:31.172Z,4.70
2023-09-27T08:16:32.801Z,4.38
2023-09-27T08:19:34.432Z,4.40
2023-09-27T08:22:37.064Z,4.63
2023-09-27T08:25:39.283Z,5.10
2023-09-27T08:28:41.388Z,4.53
2023-09-27T08:31:42.956Z,4.57
2023-09-27T08:34:44.597Z,4.55
2023-09-27T08:37:46.513Z,4.53
2023-09-27T08:40:49.218Z,4.47
2023-09-27T08:43:52.718Z,4.28
2023-09-27T08:46:56.717Z,4.93
2023-09-27T08:49:59.673Z,5.10
2023-09-27T08:53:01.335Z,5.43
2023-09-27T08:56:05.266Z,4.93
2023-09-27T08:59:07.451Z,4.72
2023-09-27T09:02:10.378Z,4.90
2023-09-27T09:05:14.904Z,4.80
2023-09-27T09:08:21.084Z,5.10
2023-09-27T09:11:28.543Z,4.20
2023-09-27T09:14:44.613Z,4.57
2023-09-27T09:17:49.010Z,4.28
2023-09-27T09:20:55.436Z,4.45
2023-09-27T09:23:57.462Z,4.10
2023-09-27T09:27:09.914Z,4.30
2023-09-27T09:30:12.950Z,3.83
2023-09-27T09:33:22.261Z,4.03
2023-09-27T09:36:29.097Z,4.20
2023-09-27T09:39:30.733Z,4.35
2023-09-27T09:42:35.733Z,3.83
2023-09-27T09:45:44.102Z,4.30
2023-09-27T09:48:46.672Z,3.88
2023-09-27T09:51:50.556Z,3.55
2023-09-27T09:55:06.819Z,4.15
2023-09-27T09:58:35.980Z,4.45
2023-09-27T10:01:39.056Z,3.67
2023-09-27T10:04:41.929Z,4.43
2023-09-27T10:07:45.338Z,3.83
2023-09-27T10:10:46.948Z,3.92
2023-09-27T10:13:49.305Z,3.72
2023-09-27T10:16:51.389Z,3.88
2023-09-27T10:20:13.841Z,4.03
2023-09-27T10:23:16.214Z,3.83
2023-09-27T10:26:18.708Z,4.60
2023-09-27T10:29:23.576Z,3.60
2023-09-27T10:32:25.535Z,3.83
2023-09-27T10:35:28.796Z,3.70
2023-09-27T10:38:42.693Z,4.13
2023-09-27T10:41:48.003Z,3.85
2023-09-27T10:44:51.397Z,4.03
2023-09-27T10:47:55.898Z,4.07
2023-09-27T10:50:58.320Z,3.33
2023-09-27T10:54:00.705Z,3.90
2023-09-27T10:57:03.704Z,3.70
2023-09-27T11:00:10.918Z,3.58
2023-09-27T11:03:19.426Z,3.42
2023-09-27T11:06:21.674Z,2.95
2023-09-27T11:09:24.730Z,3.28
2023-09-27T11:12:27.185Z,3.88
2023-09-27T11:15:29.498Z,3.38
2023-09-27T11:18:34.828Z,3.42
2023-09-27T11:21:36.602Z,3.00
2023-09-27T11:24:41.878Z,3.30
2023-09-27T11:27:46.747Z,3.22
2023-09-27T11:30:57.884Z,3.03
2023-09-27T11:34:16.566Z,3.33
2023-09-27T11:37:18.651Z,2.65
2023-09-27T11:40:34.152Z,2.90
2023-09-27T11:43:35.874Z,3.65
2023-09-27T11:46:37.544Z,3.22
2023-09-27T11:49:39.182Z,3.10
2023-09-27T11:52:41.492Z,2.88
2023-09-27T11:55:43.949Z,3.28
2023-09-27T11:58:45.796Z,3.83
2023-09-27T12:01:47.493Z,3.30
2023-09-27T12:04:49.201Z,3.53
2023-09-27T12:07:51.124Z,3.03
2023-09-27T12:10:52.762Z,3.47
2023-09-27T12:13:55.225Z,3.03
2023-09-27T12:16:56.979Z,3.08
2023-09-27T12:19:58.579Z,3.53
2023-09-27T12:23:00.308Z,3.17
2023-09-27T12:26:01.880Z,3.60
2023-09-27T12:29:04.099Z,3.72
2023-09-27T12:32:06.383Z,3.05
2023-09-27T12:35:08.230Z,2.97
2023-09-27T12:38:11.380Z,3.35
2023-09-27T12:41:13.859Z,3.28
2023-09-27T12:44:22.213Z,3.05
2023-09-27T12:47:24.548Z,3.05
2023-09-27T12:50:29.231Z,2.67
2023-09-27T12:53:31.034Z,2.58
2023-09-27T12:56:32.715Z,2.65
2023-09-27T12:59:34.663Z,3.30
2023-09-27T13:02:36.323Z,2.83
2023-09-27T13:05:39.549Z,2.35
2023-09-27T13:08:41.535Z,2.63
2023-09-27T13:11:43.298Z,2.50
2023-09-27T13:14:44.967Z,2.15
2023-09-27T13:17:46.846Z,2.20
2023-09-27T13:20:48.617Z,2.10
2023-09-27T13:23:50.373Z,2.78
2023-09-27T13:26:52.059Z,2.33
2023-09-27T13:29:53.915Z,2.33
2023-09-27T13:32:55.568Z,2.65
2023-09-27T13:36:01.027Z,2.10
2023-09-27T13:39:06.704Z,2.38
2023-09-27T13:42:09.471Z,2.35
2023-09-27T13:45:14.439Z,2.97
2023-09-27T13:48:16.447Z,2.33
2023-09-27T13:51:18.853Z,2.35
2023-09-27T13:54:20.907Z,2.40
2023-09-27T13:57:22.506Z,3.00
2023-09-27T14:00:24.268Z,2.30
2023-09-27T14:03:26.360Z,2.20
2023-09-27T14:06:28.277Z,2.40
2023-09-27T14:09:29.941Z,2.35
2023-09-27T14:12:31.628Z,2.50
2023-09-27T14:15:34.105Z,2.20
2023-09-27T14:18:36.182Z,2.60
2023-09-27T14:21:37.911Z,2.42
2023-09-27T14:24:39.611Z,2.45
2023-09-27T14:27:41.252Z,2.45
2023-09-27T14:30:42.938Z,2.78
2023-09-27T14:33:44.689Z,2.35
2023-09-27T14:36:46.480Z,2.55
2023-09-27T14:39:48.539Z,2.50
2023-09-27T14:42:50.124Z,2.30
2023-09-27T14:45:51.745Z,2.35
2023-09-27T14:48:53.644Z,2.00
2023-09-27T14:51:55.323Z,2.17
2023-09-27T14:54:57.438Z,2.90
2023-09-27T14:57:59.758Z,2.50
2023-09-27T15:01:03.214Z,2.40
2023-09-27T15:04:06.702Z,2.30
2023-09-27T15:07:08.446Z,2.58
2023-09-27T15:10:10.338Z,2.28
2023-09-27T15:13:11.935Z,2.53
2023-09-27T15:16:13.579Z,2.45
2023-09-27T15:19:15.406Z,2.55
2023-09-27T15:22:17.102Z,2.45
2023-09-27T15:25:18.785Z,2.40
2023-09-27T15:28:20.543Z,2.78
2023-09-27T15:31:22.545Z,2.70
2023-09-27T15:34:24.191Z,2.85
2023-09-27T15:37:26.529Z,2.80
2023-09-27T15:40:31.475Z,3.10
2023-09-27T15:43:33.546Z,2.90
2023-09-27T15:46:41.398Z,2.78
2023-09-27T15:49:43.153Z,3.00
2023-09-27T15:52:45.014Z,2.90
2023-09-27T15:55:46.652Z,2.83
2023-09-27T15:58:48.297Z,2.80
2023-09-27T16:01:50.557Z,2.83
2023-09-27T16:04:53.640Z,3.15
2023-09-27T16:07:56.661Z,2.53
2023-09-27T16:10:58.402Z,3.00
2023-09-27T16:14:00.480Z,2.65
2023-09-27T16:17:02.184Z,2.88
2023-09-27T16:20:04.129Z,2.80
2023-09-27T16:23:06.764Z,2.88
2023-09-27T16:26:08.446Z,2.75
2023-09-27T16:29:13.187Z,2.90
2023-09-27T16:32:15.440Z,2.78
2023-09-27T16:35:17.230Z,3.13
2023-09-27T16:38:18.849Z,3.03
2023-09-27T16:41:21.072Z,3.70
2023-09-27T16:44:26.370Z,3.58
2023-09-27T16:47:30.423Z,3.65
2023-09-27T16:50:32.150Z,3.55
2023-09-27T16:53:37.348Z,3.40
2023-09-27T16:56:38.918Z,3.55
2023-09-27T16:59:40.756Z,3.40
2023-09-27T17:02:43.431Z,3.17
2023-09-27T17:05:45.383Z,3.33
2023-09-27T17:08:48.175Z,3.22
2023-09-27T17:11:49.841Z,2.88
2023-09-27T17:14:51.567Z,3.55
2023-09-27T17:17:53.496Z,4.30
2023-09-27T17:20:55.245Z,4.68
2023-09-27T17:23:57.045Z,6.22
2023-09-27T17:26:58.718Z,5.28
2023-09-27T17:30:00.592Z,6.05
2023-09-27T17:33:02.569Z,5.90
2023-09-27T17:36:05.391Z,4.88
2023-09-27T17:39:07.847Z,5.65
2023-09-27T17:42:09.481Z,4.65
2023-09-27T17:45:11.265Z,4.13
2023-09-27T17:48:12.866Z,4.78
2023-09-27T17:51:14.506Z,5.15
2023-09-27T17:54:16.199Z,4.25
2023-09-27T17:57:18.391Z,4.43
2023-09-27T18:00:20.272Z,4.78
2023-09-27T18:03:22.459Z,5.03
2023-09-27T18:06:24.238Z,4.55
2023-09-27T18:09:25.826Z,4.60
2023-09-27T18:12:27.495Z,5.25
2023-09-27T18:15:29.178Z,5.22
2023-09-27T18:18:30.780Z,4.15
2023-09-27T18:21:32.619Z,5.32
2023-09-27T18:24:34.207Z,5.90
2023-09-27T18:27:35.800Z,4.72
2023-09-27T18:30:37.979Z,4.95
2023-09-27T18:33:39.914Z,5.05
2023-09-27T18:36:41.584Z,5.30
2023-09-27T18:39:43.185Z,6.38
2023-09-27T18:42:44.867Z,6.32
2023-09-27T18:45:47.566Z,5.68
2023-09-27T18:48:51.379Z,5.22
2023-09-27T18:51:54.360Z,5.60
2023-09-27T18:54:55.996Z,5.28
2023-09-27T18:57:57.589Z,5.25
2023-09-27T19:00:59.379Z,5.30
2023-09-27T19:04:03.258Z,5.43
2023-09-27T19:07:05.232Z,5.18
2023-09-27T19:10:08.201Z,5.20
2023-09-27T19:13:10.094Z,5.00
2023-09-27T19:16:11.823Z,4.97
2023-09-27T19:19:13.631Z,5.13
2023-09-27T19:22:15.286Z,5.20
2023-09-27T19:25:18.617Z,5.05
2023-09-27T19:28:20.354Z,4.80
2023-09-27T19:31:22.189Z,4.78
2023-09-27T19:34:24.547Z,4.40
2023-09-27T19:37:26.158Z,4.63
2023-09-27T19:40:27.806Z,5.22
2023-09-27T19:43:29.427Z,5.00
2023-09-27T19:46:32.588Z,4.82
2023-09-27T19:49:35.674Z,4.45
2023-09-27T19:52:40.825Z,4.10
2023-09-27T19:55:42.608Z,4.82
2023-09-27T19:58:44.532Z,4.88
2023-09-27T20:01:46.315Z,4.40
2023-09-27T20:04:48.295Z,4.05
2023-09-27T20:07:49.990Z,4.72
2023-09-27T20:10:51.814Z,4.25
2023-09-27T20:13:53.724Z,4.70
2023-09-27T20:16:55.578Z,4.45
2023-09-27T20:19:58.602Z,4.30
2023-09-27T20:23:00.267Z,4.30
2023-09-27T20:26:02.897Z,4.15
2023-09-27T20:29:04.725Z,4.32
2023-09-27T20:32:06.464Z,4.25
2023-09-27T20:35:08.637Z,4.18
2023-09-27T20:38:10.438Z,4.13
2023-09-27T20:41:12.406Z,4.30
2023-09-27T20:44:14.250Z,4.65
2023-09-27T20:47:17.559Z,4.25
2023-09-27T20:50:19.188Z,4.90
2023-09-27T20:53:20.845Z,4.30
2023-09-27T20:56:22.463Z,4.05
2023-09-27T20:59:24.167Z,4.90
2023-09-27T21:02:25.804Z,4.25
2023-09-27T21:05:29.100Z,4.10
2023-09-27T21:08:30.735Z,4.38
2023-09-27T21:11:32.814Z,3.80
2023-09-27T21:14:38.142Z,4.40
2023-09-27T21:17:39.756Z,4.50
2023-09-27T21:20:41.404Z,4.75
2023-09-27T21:23:43.030Z,4.45
2023-09-27T21:26:44.797Z,4.68
2023-09-27T21:29:46.804Z,4.10
2023-09-27T21:32:48.571Z,4.57
2023-09-27T21:35:56.046Z,4.13
2023-09-27T21:38:57.642Z,4.40
2023-09-27T21:42:02.454Z,4.50
2023-09-27T21:45:04.697Z,3.92
2023-09-27T21:48:06.621Z,4.15
2023-09-27T21:51:08.269Z,3.90
2023-09-27T21:54:09.843Z,3.72
2023-09-27T21:57:11.429Z,4.07
2023-09-27T22:00:21.009Z,4.20
2023-09-27T22:03:24.052Z,3.90
2023-09-27T22:06:26.458Z,4.03
2023-09-27T22:09:28.046Z,4.43
2023-09-27T22:12:31.927Z,3.67
2023-09-27T22:15:36.875Z,4.07
2023-09-27T22:18:39.452Z,3.80
2023-09-27T22:21:45.767Z,3.92
2023-09-27T22:24:51.113Z,3.92
2023-09-27T22:27:53.033Z,3.88
2023-09-27T22:30:54.713Z,4.18
2023-09-27T22:34:10.901Z,3.88
2023-09-27T22:37:15.337Z,3.90
2023-09-27T22:40:20.847Z,3.70
2023-09-27T22:43:23.606Z,3.80
2023-09-27T22:46:25.194Z,3.90
2023-09-27T22:49:26.841Z,3.63
2023-09-27T22:52:28.478Z,3.50
2023-09-27T22:55:30.142Z,3.80
2023-09-27T22:58:33.911Z,3.70
2023-09-27T23:01:35.948Z,4.07
2023-09-27T23:04:37.657Z,4.07
2023-09-27T23:07:39.363Z,4.32
2023-09-27T23:10:41.571Z,3.85
2023-09-27T23:13:49.659Z,3.70
2023-09-27T23:17:11.390Z,3.80
2023-09-27T23:20:13.119Z,3.70
2023-09-27T23:23:17.187Z,3.88
2023-09-27T23:26:37.140Z,3.60
2023-09-27T23:29:41.826Z,4.20
2023-09-27T23:32:44.712Z,3.60
2023-09-27T23:35:46.935Z,3.58
2023-09-27T23:38:57.074Z,4.13
2023-09-27T23:42:02.593Z,3.63
2023-09-27T23:45:12.743Z,3.65
2023-09-27T23:48:14.599Z,3.63
2023-09-27T23:51:16.543Z,3.70
2023-09-27T23:54:18.790Z,3.70
2023-09-27T23:57:20.570Z,3.47
